sensor_id;sensor_type;location;lat;lon;timestamp;P1;durP1;ratioP1;P2;durP2;ratioP2
10517;SDS011;5307;42.548;22.968;2023-04-25T00:01:31;1.40;;;1.27;;
10517;SDS011;5307;42.548;22.968;2023-04-25T00:04:01;1.63;;;1.42;;
10517;SDS011;5307;42.548;22.968;2023-04-25T00:06:28;3.05;;;1.40;;
10517;SDS011;5307;42.548;22.968;2023-04-25T00:08:56;1.67;;;1.42;;
10517;SDS011;5307;42.548;22.968;2023-04-25T00:11:23;3.42;;;1.20;;
10517;SDS011;5307;42.548;22.968;2023-04-25T00:13:50;5.35;;;1.45;;
10517;SDS011;5307;42.548;22.968;2023-04-25T00:16:17;1.98;;;1.20;;
10517;SDS011;5307;42.548;22.968;2023-04-25T00:18:44;1.83;;;1.17;;
10517;SDS011;5307;42.548;22.968;2023-04-25T00:21:16;1.50;;;1.10;;
10517;SDS011;5307;42.548;22.968;2023-04-25T00:23:43;2.88;;;1.42;;
10517;SDS011;5307;42.548;22.968;2023-04-25T00:26:12;2.90;;;1.80;;
10517;SDS011;5307;42.548;22.968;2023-04-25T00:28:39;1.00;;;1.00;;
10517;SDS011;5307;42.548;22.968;2023-04-25T00:31:06;2.50;;;1.63;;
10517;SDS011;5307;42.548;22.968;2023-04-25T00:33:33;3.15;;;2.05;;
10517;SDS011;5307;42.548;22.968;2023-04-25T00:36:00;1.55;;;1.45;;
10517;SDS011;5307;42.548;22.968;2023-04-25T00:38:27;4.72;;;1.30;;
10517;SDS011;5307;42.548;22.968;2023-04-25T00:40:54;1.40;;;1.30;;
10517;SDS011;5307;42.548;22.968;2023-04-25T00:43:22;1.60;;;1.50;;
10517;SDS011;5307;42.548;22.968;2023-04-25T00:45:49;2.28;;;1.52;;
10517;SDS011;5307;42.548;22.968;2023-04-25T00:48:18;5.60;;;2.17;;
10517;SDS011;5307;42.548;22.968;2023-04-25T00:50:51;3.75;;;2.55;;
10517;SDS011;5307;42.548;22.968;2023-04-25T00:53:19;5.65;;;2.97;;
10517;SDS011;5307;42.548;22.968;2023-04-25T00:55:46;3.38;;;2.40;;
10517;SDS011;5307;42.548;22.968;2023-04-25T00:58:13;3.22;;;1.90;;
10517;SDS011;5307;42.548;22.968;2023-04-25T01:00:41;2.03;;;1.83;;
10517;SDS011;5307;42.548;22.968;2023-04-25T01:03:08;2.53;;;1.88;;
10517;SDS011;5307;42.548;22.968;2023-04-25T01:05:36;2.55;;;2.08;;
10517;SDS011;5307;42.548;22.968;2023-04-25T01:08:03;3.65;;;2.05;;
10517;SDS011;5307;42.548;22.968;2023-04-25T01:10:29;4.55;;;2.78;;
10517;SDS011;5307;42.548;22.968;2023-04-25T01:12:56;3.50;;;2.10;;
10517;SDS011;5307;42.548;22.968;2023-04-25T01:15:23;2.70;;;2.50;;
10517;SDS011;5307;42.548;22.968;2023-04-25T01:17:51;4.75;;;2.78;;
10517;SDS011;5307;42.548;22.968;2023-04-25T01:20:20;4.70;;;2.65;;
10517;SDS011;5307;42.548;22.968;2023-04-25T01:22:49;6.85;;;3.53;;
10517;SDS011;5307;42.548;22.968;2023-04-25T01:25:16;4.68;;;3.95;;
10517;SDS011;5307;42.548;22.968;2023-04-25T01:27:45;4.25;;;3.55;;
10517;SDS011;5307;42.548;22.968;2023-04-25T01:30:12;3.88;;;3.28;;
10517;SDS011;5307;42.548;22.968;2023-04-25T01:32:40;6.00;;;3.63;;
10517;SDS011;5307;42.548;22.968;2023-04-25T01:35:09;4.38;;;3.40;;
10517;SDS011;5307;42.548;22.968;2023-04-25T01:37:37;3.90;;;3.55;;
10517;SDS011;5307;42.548;22.968;2023-04-25T01:40:07;4.18;;;3.38;;
10517;SDS011;5307;42.548;22.968;2023-04-25T01:42:36;5.80;;;3.72;;
10517;SDS011;5307;42.548;22.968;2023-04-25T01:45:04;4.03;;;3.63;;
10517;SDS011;5307;42.548;22.968;2023-04-25T01:47:32;5.22;;;3.70;;
10517;SDS011;5307;42.548;22.968;2023-04-25T01:50:00;3.97;;;3.58;;
10517;SDS011;5307;42.548;22.968;2023-04-25T01:52:26;5.60;;;4.03;;
10517;SDS011;5307;42.548;22.968;2023-04-25T01:54:53;5.15;;;4.03;;
10517;SDS011;5307;42.548;22.968;2023-04-25T01:57:22;5.88;;;4.05;;
10517;SDS011;5307;42.548;22.968;2023-04-25T01:59:48;7.97;;;5.03;;
10517;SDS011;5307;42.548;22.968;2023-04-25T02:02:16;6.57;;;5.35;;
10517;SDS011;5307;42.548;22.968;2023-04-25T02:04:43;7.80;;;4.78;;
10517;SDS011;5307;42.548;22.968;2023-04-25T02:07:09;6.15;;;5.22;;
10517;SDS011;5307;42.548;22.968;2023-04-25T02:09:36;7.53;;;4.97;;
10517;SDS011;5307;42.548;22.968;2023-04-25T02:12:03;7.28;;;5.32;;
10517;SDS011;5307;42.548;22.968;2023-04-25T02:14:32;7.68;;;5.38;;
10517;SDS011;5307;42.548;22.968;2023-04-25T02:16:58;6.40;;;5.22;;
10517;SDS011;5307;42.548;22.968;2023-04-25T02:19:25;7.13;;;6.07;;
10517;SDS011;5307;42.548;22.968;2023-04-25T02:21:52;6.22;;;5.63;;
10517;SDS011;5307;42.548;22.968;2023-04-25T02:24:19;9.27;;;6.30;;
10517;SDS011;5307;42.548;22.968;2023-04-25T02:26:46;11.23;;;7.25;;
10517;SDS011;5307;42.548;22.968;2023-04-25T02:29:14;11.25;;;7.10;;
10517;SDS011;5307;42.548;22.968;2023-04-25T02:31:42;10.63;;;7.60;;
10517;SDS011;5307;42.548;22.968;2023-04-25T02:34:09;15.27;;;8.63;;
10517;SDS011;5307;42.548;22.968;2023-04-25T02:36:36;11.77;;;8.27;;
10517;SDS011;5307;42.548;22.968;2023-04-25T02:39:02;15.30;;;9.40;;
10517;SDS011;5307;42.548;22.968;2023-04-25T02:41:30;11.45;;;7.93;;
10517;SDS011;5307;42.548;22.968;2023-04-25T02:43:56;13.60;;;8.68;;
10517;SDS011;5307;42.548;22.968;2023-04-25T02:46:23;13.32;;;8.82;;
10517;SDS011;5307;42.548;22.968;2023-04-25T02:48:51;13.90;;;9.57;;
10517;SDS011;5307;42.548;22.968;2023-04-25T02:51:18;10.15;;;8.60;;
10517;SDS011;5307;42.548;22.968;2023-04-25T02:53:45;11.38;;;9.15;;
10517;SDS011;5307;42.548;22.968;2023-04-25T02:56:12;12.35;;;8.77;;
10517;SDS011;5307;42.548;22.968;2023-04-25T02:58:38;13.10;;;8.88;;
10517;SDS011;5307;42.548;22.968;2023-04-25T03:01:05;12.02;;;8.27;;
10517;SDS011;5307;42.548;22.968;2023-04-25T03:03:32;10.32;;;8.32;;
10517;SDS011;5307;42.548;22.968;2023-04-25T03:06:00;10.75;;;8.43;;
10517;SDS011;5307;42.548;22.968;2023-04-25T03:08:27;13.07;;;8.55;;
10517;SDS011;5307;42.548;22.968;2023-04-25T03:10:57;13.00;;;8.90;;
10517;SDS011;5307;42.548;22.968;2023-04-25T03:13:24;12.10;;;9.18;;
10517;SDS011;5307;42.548;22.968;2023-04-25T03:15:52;13.23;;;8.77;;
10517;SDS011;5307;42.548;22.968;2023-04-25T03:18:19;10.43;;;8.43;;
10517;SDS011;5307;42.548;22.968;2023-04-25T03:20:45;9.95;;;7.72;;
10517;SDS011;5307;42.548;22.968;2023-04-25T03:23:14;11.25;;;7.75;;
10517;SDS011;5307;42.548;22.968;2023-04-25T03:25:40;9.85;;;8.07;;
10517;SDS011;5307;42.548;22.968;2023-04-25T03:28:08;13.70;;;8.88;;
10517;SDS011;5307;42.548;22.968;2023-04-25T03:30:34;10.82;;;8.45;;
10517;SDS011;5307;42.548;22.968;2023-04-25T03:33:01;9.05;;;7.35;;
10517;SDS011;5307;42.548;22.968;2023-04-25T03:35:28;9.75;;;8.02;;
10517;SDS011;5307;42.548;22.968;2023-04-25T03:37:55;11.32;;;7.22;;
10517;SDS011;5307;42.548;22.968;2023-04-25T03:40:23;10.55;;;6.97;;
10517;SDS011;5307;42.548;22.968;2023-04-25T03:42:50;8.45;;;7.05;;
10517;SDS011;5307;42.548;22.968;2023-04-25T03:45:17;12.70;;;6.82;;
10517;SDS011;5307;42.548;22.968;2023-04-25T03:47:44;8.77;;;7.10;;
10517;SDS011;5307;42.548;22.968;2023-04-25T03:50:10;9.98;;;6.97;;
10517;SDS011;5307;42.548;22.968;2023-04-25T03:52:37;9.57;;;6.95;;
10517;SDS011;5307;42.548;22.968;2023-04-25T03:55:04;9.20;;;7.30;;
10517;SDS011;5307;42.548;22.968;2023-04-25T03:57:33;12.00;;;8.27;;
10517;SDS011;5307;42.548;22.968;2023-04-25T04:00:00;14.85;;;9.52;;
10517;SDS011;5307;42.548;22.968;2023-04-25T04:02:27;15.55;;;9.68;;
10517;SDS011;5307;42.548;22.968;2023-04-25T04:04:53;16.48;;;10.32;;
10517;SDS011;5307;42.548;22.968;2023-04-25T04:07:21;17.20;;;9.80;;
10517;SDS011;5307;42.548;22.968;2023-04-25T04:09:48;14.50;;;8.90;;
10517;SDS011;5307;42.548;22.968;2023-04-25T04:12:15;13.13;;;8.63;;
10517;SDS011;5307;42.548;22.968;2023-04-25T04:14:43;16.13;;;9.65;;
10517;SDS011;5307;42.548;22.968;2023-04-25T04:17:10;10.52;;;7.30;;
10517;SDS011;5307;42.548;22.968;2023-04-25T04:19:37;9.93;;;6.68;;
10517;SDS011;5307;42.548;22.968;2023-04-25T04:22:03;11.48;;;6.47;;
10517;SDS011;5307;42.548;22.968;2023-04-25T04:24:30;10.23;;;6.80;;
10517;SDS011;5307;42.548;22.968;2023-04-25T04:26:57;9.77;;;6.55;;
10517;SDS011;5307;42.548;22.968;2023-04-25T04:29:24;10.10;;;6.70;;
10517;SDS011;5307;42.548;22.968;2023-04-25T04:31:52;10.57;;;6.68;;
10517;SDS011;5307;42.548;22.968;2023-04-25T04:34:19;12.18;;;7.15;;
10517;SDS011;5307;42.548;22.968;2023-04-25T04:36:47;12.32;;;7.05;;
10517;SDS011;5307;42.548;22.968;2023-04-25T04:39:14;10.85;;;6.97;;
10517;SDS011;5307;42.548;22.968;2023-04-25T04:51:33;11.63;;;8.88;;
10517;SDS011;5307;42.548;22.968;2023-04-25T04:53:59;13.07;;;8.45;;
10517;SDS011;5307;42.548;22.968;2023-04-25T04:56:27;15.18;;;9.55;;
10517;SDS011;5307;42.548;22.968;2023-04-25T04:58:57;11.73;;;8.20;;
10517;SDS011;5307;42.548;22.968;2023-04-25T05:01:24;10.77;;;7.32;;
10517;SDS011;5307;42.548;22.968;2023-04-25T05:03:51;12.70;;;8.55;;
10517;SDS011;5307;42.548;22.968;2023-04-25T05:06:20;13.00;;;9.75;;
10517;SDS011;5307;42.548;22.968;2023-04-25T05:08:48;11.68;;;8.55;;
10517;SDS011;5307;42.548;22.968;2023-04-25T05:11:14;15.75;;;10.30;;
10517;SDS011;5307;42.548;22.968;2023-04-25T05:13:41;17.17;;;9.35;;
10517;SDS011;5307;42.548;22.968;2023-04-25T05:16:08;11.18;;;8.05;;
10517;SDS011;5307;42.548;22.968;2023-04-25T05:18:35;14.63;;;9.00;;
10517;SDS011;5307;42.548;22.968;2023-04-25T05:21:02;11.10;;;8.38;;
10517;SDS011;5307;42.548;22.968;2023-04-25T05:23:29;14.93;;;10.85;;
10517;SDS011;5307;42.548;22.968;2023-04-25T05:25:58;11.82;;;9.07;;
10517;SDS011;5307;42.548;22.968;2023-04-25T05:28:26;9.88;;;7.13;;
10517;SDS011;5307;42.548;22.968;2023-04-25T05:30:52;11.48;;;6.03;;
10517;SDS011;5307;42.548;22.968;2023-04-25T05:33:19;6.70;;;6.00;;
10517;SDS011;5307;42.548;22.968;2023-04-25T05:35:47;7.22;;;5.88;;
10517;SDS011;5307;42.548;22.968;2023-04-25T05:38:16;6.47;;;5.20;;
10517;SDS011;5307;42.548;22.968;2023-04-25T05:40:43;7.03;;;5.20;;
10517;SDS011;5307;42.548;22.968;2023-04-25T05:43:12;6.40;;;4.90;;
10517;SDS011;5307;42.548;22.968;2023-04-25T05:45:38;9.40;;;4.68;;
10517;SDS011;5307;42.548;22.968;2023-04-25T05:48:05;7.32;;;4.65;;
10517;SDS011;5307;42.548;22.968;2023-04-25T05:50:32;6.07;;;4.68;;
10517;SDS011;5307;42.548;22.968;2023-04-25T05:52:59;6.70;;;4.70;;
10517;SDS011;5307;42.548;22.968;2023-04-25T05:55:25;5.75;;;4.05;;
10517;SDS011;5307;42.548;22.968;2023-04-25T05:57:52;6.55;;;4.53;;
10517;SDS011;5307;42.548;22.968;2023-04-25T06:00:20;9.13;;;4.82;;
10517;SDS011;5307;42.548;22.968;2023-04-25T06:02:47;9.07;;;7.40;;
10517;SDS011;5307;42.548;22.968;2023-04-25T06:05:14;8.77;;;7.18;;
10517;SDS011;5307;42.548;22.968;2023-04-25T06:07:41;6.53;;;5.53;;
10517;SDS011;5307;42.548;22.968;2023-04-25T06:10:08;5.93;;;5.32;;
10517;SDS011;5307;42.548;22.968;2023-04-25T06:12:35;10.45;;;5.10;;
10517;SDS011;5307;42.548;22.968;2023-04-25T06:15:03;6.47;;;5.55;;
10517;SDS011;5307;42.548;22.968;2023-04-25T06:17:32;8.30;;;5.47;;
10517;SDS011;5307;42.548;22.968;2023-04-25T06:19:59;6.00;;;4.80;;
10517;SDS011;5307;42.548;22.968;2023-04-25T06:22:25;6.03;;;4.72;;
10517;SDS011;5307;42.548;22.968;2023-04-25T06:24:52;9.77;;;5.45;;
10517;SDS011;5307;42.548;22.968;2023-04-25T06:27:23;7.32;;;5.40;;
10517;SDS011;5307;42.548;22.968;2023-04-25T06:29:50;13.23;;;6.28;;
10517;SDS011;5307;42.548;22.968;2023-04-25T06:32:16;10.75;;;5.68;;
10517;SDS011;5307;42.548;22.968;2023-04-25T06:34:46;8.50;;;6.53;;
10517;SDS011;5307;42.548;22.968;2023-04-25T06:37:13;7.30;;;5.80;;
10517;SDS011;5307;42.548;22.968;2023-04-25T06:39:40;8.38;;;6.47;;
10517;SDS011;5307;42.548;22.968;2023-04-25T06:42:08;9.90;;;5.28;;
10517;SDS011;5307;42.548;22.968;2023-04-25T06:44:35;5.85;;;4.70;;
10517;SDS011;5307;42.548;22.968;2023-04-25T06:47:01;7.78;;;5.45;;
10517;SDS011;5307;42.548;22.968;2023-04-25T06:49:28;5.43;;;4.60;;
10517;SDS011;5307;42.548;22.968;2023-04-25T06:51:56;4.80;;;4.28;;
10517;SDS011;5307;42.548;22.968;2023-04-25T06:54:23;5.95;;;4.68;;
10517;SDS011;5307;42.548;22.968;2023-04-25T06:56:52;8.20;;;5.63;;
10517;SDS011;5307;42.548;22.968;2023-04-25T06:59:19;5.28;;;3.90;;
10517;SDS011;5307;42.548;22.968;2023-04-25T07:01:45;7.63;;;4.85;;
10517;SDS011;5307;42.548;22.968;2023-04-25T07:04:12;22.15;;;14.70;;
10517;SDS011;5307;42.548;22.968;2023-04-25T07:06:39;23.83;;;14.77;;
10517;SDS011;5307;42.548;22.968;2023-04-25T07:09:09;10.15;;;6.13;;
10517;SDS011;5307;42.548;22.968;2023-04-25T07:11:36;7.00;;;5.50;;
10517;SDS011;5307;42.548;22.968;2023-04-25T07:14:03;7.28;;;5.07;;
10517;SDS011;5307;42.548;22.968;2023-04-25T07:16:29;9.57;;;5.45;;
10517;SDS011;5307;42.548;22.968;2023-04-25T07:18:56;5.60;;;3.30;;
10517;SDS011;5307;42.548;22.968;2023-04-25T07:21:24;4.43;;;3.47;;
10517;SDS011;5307;42.548;22.968;2023-04-25T07:23:51;3.55;;;3.22;;
10517;SDS011;5307;42.548;22.968;2023-04-25T07:26:19;6.30;;;3.92;;
10517;SDS011;5307;42.548;22.968;2023-04-25T07:28:46;5.32;;;4.43;;
10517;SDS011;5307;42.548;22.968;2023-04-25T07:31:15;5.20;;;3.83;;
10517;SDS011;5307;42.548;22.968;2023-04-25T07:33:43;3.38;;;3.08;;
10517;SDS011;5307;42.548;22.968;2023-04-25T07:36:10;4.40;;;3.60;;
10517;SDS011;5307;42.548;22.968;2023-04-25T07:38:37;7.55;;;3.00;;
10517;SDS011;5307;42.548;22.968;2023-04-25T07:41:04;7.38;;;5.18;;
10517;SDS011;5307;42.548;22.968;2023-04-25T07:43:32;6.63;;;4.45;;
10517;SDS011;5307;42.548;22.968;2023-04-25T07:45:59;3.33;;;3.03;;
10517;SDS011;5307;42.548;22.968;2023-04-25T07:48:26;6.93;;;3.33;;
10517;SDS011;5307;42.548;22.968;2023-04-25T07:50:52;5.50;;;3.45;;
10517;SDS011;5307;42.548;22.968;2023-04-25T07:53:19;4.97;;;3.60;;
10517;SDS011;5307;42.548;22.968;2023-04-25T07:55:46;4.30;;;3.05;;
10517;SDS011;5307;42.548;22.968;2023-04-25T07:58:13;2.83;;;2.20;;
10517;SDS011;5307;42.548;22.968;2023-04-25T08:00:41;3.50;;;2.22;;
10517;SDS011;5307;42.548;22.968;2023-04-25T08:03:09;3.25;;;2.20;;
10517;SDS011;5307;42.548;22.968;2023-04-25T08:05:37;4.90;;;3.78;;
10517;SDS011;5307;42.548;22.968;2023-04-25T08:08:04;11.18;;;4.50;;
10517;SDS011;5307;42.548;22.968;2023-04-25T08:10:31;3.05;;;2.70;;
10517;SDS011;5307;42.548;22.968;2023-04-25T08:12:58;4.72;;;3.78;;
10517;SDS011;5307;42.548;22.968;2023-04-25T08:15:25;6.68;;;3.45;;
10517;SDS011;5307;42.548;22.968;2023-04-25T08:17:53;2.50;;;2.30;;
10517;SDS011;5307;42.548;22.968;2023-04-25T08:20:21;3.65;;;2.50;;
10517;SDS011;5307;42.548;22.968;2023-04-25T08:22:47;2.97;;;2.35;;
10517;SDS011;5307;42.548;22.968;2023-04-25T08:25:14;4.80;;;2.20;;
10517;SDS011;5307;42.548;22.968;2023-04-25T08:27:41;2.83;;;2.28;;
10517;SDS011;5307;42.548;22.968;2023-04-25T08:30:08;3.42;;;2.03;;
10517;SDS011;5307;42.548;22.968;2023-04-25T08:32:35;4.15;;;2.53;;
10517;SDS011;5307;42.548;22.968;2023-04-25T08:35:04;1.77;;;1.67;;
10517;SDS011;5307;42.548;22.968;2023-04-25T08:37:31;4.80;;;1.90;;
10517;SDS011;5307;42.548;22.968;2023-04-25T08:39:58;3.17;;;1.65;;
10517;SDS011;5307;42.548;22.968;2023-04-25T08:42:26;3.60;;;1.70;;
10517;SDS011;5307;42.548;22.968;2023-04-25T08:44:54;1.95;;;1.80;;
10517;SDS011;5307;42.548;22.968;2023-04-25T08:47:22;4.32;;;1.52;;
10517;SDS011;5307;42.548;22.968;2023-04-25T08:49:49;5.07;;;1.65;;
10517;SDS011;5307;42.548;22.968;2023-04-25T08:52:21;2.33;;;1.58;;
10517;SDS011;5307;42.548;22.968;2023-04-25T08:54:49;1.88;;;1.40;;
10517;SDS011;5307;42.548;22.968;2023-04-25T08:57:17;3.08;;;1.40;;
10517;SDS011;5307;42.548;22.968;2023-04-25T08:59:44;4.40;;;2.08;;
10517;SDS011;5307;42.548;22.968;2023-04-25T09:02:13;1.50;;;1.23;;
10517;SDS011;5307;42.548;22.968;2023-04-25T09:04:42;3.38;;;1.60;;
10517;SDS011;5307;42.548;22.968;2023-04-25T09:07:09;4.50;;;1.58;;
10517;SDS011;5307;42.548;22.968;2023-04-25T09:09:37;2.33;;;1.35;;
10517;SDS011;5307;42.548;22.968;2023-04-25T09:12:05;1.65;;;1.20;;
10517;SDS011;5307;42.548;22.968;2023-04-25T09:14:31;2.92;;;1.25;;
10517;SDS011;5307;42.548;22.968;2023-04-25T09:16:59;2.00;;;1.70;;
10517;SDS011;5307;42.548;22.968;2023-04-25T09:19:28;1.80;;;1.30;;
10517;SDS011;5307;42.548;22.968;2023-04-25T09:21:57;2.50;;;1.05;;
10517;SDS011;5307;42.548;22.968;2023-04-25T09:24:35;1.42;;;0.90;;
10517;SDS011;5307;42.548;22.968;2023-04-25T09:27:04;2.08;;;0.93;;
10517;SDS011;5307;42.548;22.968;2023-04-25T09:29:32;1.45;;;1.33;;
10517;SDS011;5307;42.548;22.968;2023-04-25T09:34:54;7.00;;;2.92;;
10517;SDS011;5307;42.548;22.968;2023-04-25T09:37:23;1.48;;;1.00;;
10517;SDS011;5307;42.548;22.968;2023-04-25T09:39:53;1.33;;;1.23;;
10517;SDS011;5307;42.548;22.968;2023-04-25T09:42:23;1.95;;;1.30;;
10517;SDS011;5307;42.548;22.968;2023-04-25T09:44:51;1.63;;;1.10;;
10517;SDS011;5307;42.548;22.968;2023-04-25T09:47:18;1.98;;;1.00;;
10517;SDS011;5307;42.548;22.968;2023-04-25T09:49:46;1.20;;;1.10;;
10517;SDS011;5307;42.548;22.968;2023-04-25T09:52:14;1.63;;;1.10;;
10517;SDS011;5307;42.548;22.968;2023-04-25T09:54:42;2.90;;;1.10;;
10517;SDS011;5307;42.548;22.968;2023-04-25T09:57:12;1.52;;;1.40;;
10517;SDS011;5307;42.548;22.968;2023-04-25T09:59:44;1.70;;;1.23;;
10517;SDS011;5307;42.548;22.968;2023-04-25T10:02:12;1.55;;;1.45;;
10517;SDS011;5307;42.548;22.968;2023-04-25T10:04:39;3.45;;;2.28;;
10517;SDS011;5307;42.548;22.968;2023-04-25T10:07:08;1.92;;;1.73;;
10517;SDS011;5307;42.548;22.968;2023-04-25T10:09:36;5.88;;;1.90;;
10517;SDS011;5307;42.548;22.968;2023-04-25T10:12:05;3.25;;;1.40;;
10517;SDS011;5307;42.548;22.968;2023-04-25T10:14:33;3.53;;;1.40;;
10517;SDS011;5307;42.548;22.968;2023-04-25T10:17:01;7.22;;;2.00;;
10517;SDS011;5307;42.548;22.968;2023-04-25T10:19:28;5.10;;;2.15;;
10517;SDS011;5307;42.548;22.968;2023-04-25T10:22:02;7.72;;;3.97;;
10517;SDS011;5307;42.548;22.968;2023-04-25T10:24:32;6.32;;;4.15;;
10517;SDS011;5307;42.548;22.968;2023-04-25T10:26:59;3.95;;;2.00;;
10517;SDS011;5307;42.548;22.968;2023-04-25T10:29:27;1.90;;;1.50;;
10517;SDS011;5307;42.548;22.968;2023-04-25T10:31:54;4.22;;;1.05;;
10517;SDS011;5307;42.548;22.968;2023-04-25T10:34:24;2.45;;;1.20;;
10517;SDS011;5307;42.548;22.968;2023-04-25T10:37:04;1.75;;;1.23;;
10517;SDS011;5307;42.548;22.968;2023-04-25T10:39:34;1.50;;;1.20;;
10517;SDS011;5307;42.548;22.968;2023-04-25T10:42:01;2.97;;;2.50;;
10517;SDS011;5307;42.548;22.968;2023-04-25T10:44:29;2.08;;;1.42;;
10517;SDS011;5307;42.548;22.968;2023-04-25T10:46:56;2.63;;;2.05;;
10517;SDS011;5307;42.548;22.968;2023-04-25T10:49:32;1.10;;;1.00;;
10517;SDS011;5307;42.548;22.968;2023-04-25T10:52:12;1.17;;;1.08;;
10517;SDS011;5307;42.548;22.968;2023-04-25T10:54:41;1.23;;;1.08;;
10517;SDS011;5307;42.548;22.968;2023-04-25T11:00:00;1.20;;;1.10;;
10517;SDS011;5307;42.548;22.968;2023-04-25T11:02:31;1.45;;;1.33;;
10517;SDS011;5307;42.548;22.968;2023-04-25T11:05:04;3.63;;;1.40;;
10517;SDS011;5307;42.548;22.968;2023-04-25T11:07:34;2.90;;;2.20;;
10517;SDS011;5307;42.548;22.968;2023-04-25T11:10:05;3.65;;;1.23;;
10517;SDS011;5307;42.548;22.968;2023-04-25T11:12:33;8.15;;;1.65;;
10517;SDS011;5307;42.548;22.968;2023-04-25T11:15:00;10.98;;;2.30;;
10517;SDS011;5307;42.548;22.968;2023-04-25T11:17:28;9.02;;;2.78;;
10517;SDS011;5307;42.548;22.968;2023-04-25T11:19:55;15.13;;;3.22;;
10517;SDS011;5307;42.548;22.968;2023-04-25T11:22:23;1.73;;;1.52;;
10517;SDS011;5307;42.548;22.968;2023-04-25T11:24:50;4.55;;;1.73;;
10517;SDS011;5307;42.548;22.968;2023-04-25T11:27:17;4.70;;;1.73;;
10517;SDS011;5307;42.548;22.968;2023-04-25T11:29:44;18.33;;;10.70;;
10517;SDS011;5307;42.548;22.968;2023-04-25T11:32:13;25.42;;;12.82;;
10517;SDS011;5307;42.548;22.968;2023-04-25T11:34:42;11.88;;;5.72;;
10517;SDS011;5307;42.548;22.968;2023-04-25T11:37:11;15.18;;;7.72;;
10517;SDS011;5307;42.548;22.968;2023-04-25T11:39:39;23.95;;;10.52;;
10517;SDS011;5307;42.548;22.968;2023-04-25T11:42:10;13.85;;;6.18;;
10517;SDS011;5307;42.548;22.968;2023-04-25T11:44:37;10.02;;;6.15;;
10517;SDS011;5307;42.548;22.968;2023-04-25T11:47:05;8.98;;;4.13;;
10517;SDS011;5307;42.548;22.968;2023-04-25T11:49:31;2.38;;;2.00;;
10517;SDS011;5307;42.548;22.968;2023-04-25T11:51:58;14.07;;;8.77;;
10517;SDS011;5307;42.548;22.968;2023-04-25T11:54:25;3.67;;;2.25;;
10517;SDS011;5307;42.548;22.968;2023-04-25T11:56:53;5.75;;;2.63;;
10517;SDS011;5307;42.548;22.968;2023-04-25T11:59:23;1.23;;;1.13;;
10517;SDS011;5307;42.548;22.968;2023-04-25T12:01:51;2.00;;;1.30;;
10517;SDS011;5307;42.548;22.968;2023-04-25T12:04:19;1.67;;;1.23;;
10517;SDS011;5307;42.548;22.968;2023-04-25T12:06:47;2.45;;;2.03;;
10517;SDS011;5307;42.548;22.968;2023-04-25T12:09:16;1.77;;;1.10;;
10517;SDS011;5307;42.548;22.968;2023-04-25T12:11:44;3.55;;;2.60;;
10517;SDS011;5307;42.548;22.968;2023-04-25T12:14:20;6.30;;;2.33;;
10517;SDS011;5307;42.548;22.968;2023-04-25T12:16:49;1.67;;;1.30;;
10517;SDS011;5307;42.548;22.968;2023-04-25T12:19:19;3.83;;;1.52;;
10517;SDS011;5307;42.548;22.968;2023-04-25T12:21:46;2.58;;;1.77;;
10517;SDS011;5307;42.548;22.968;2023-04-25T12:24:14;4.43;;;2.50;;
10517;SDS011;5307;42.548;22.968;2023-04-25T12:26:48;2.33;;;1.90;;
10517;SDS011;5307;42.548;22.968;2023-04-25T12:29:19;1.85;;;1.60;;
10517;SDS011;5307;42.548;22.968;2023-04-25T12:31:47;1.40;;;1.20;;
10517;SDS011;5307;42.548;22.968;2023-04-25T12:34:15;3.55;;;2.00;;
10517;SDS011;5307;42.548;22.968;2023-04-25T12:36:42;5.82;;;3.03;;
10517;SDS011;5307;42.548;22.968;2023-04-25T12:39:13;1.67;;;1.33;;
10517;SDS011;5307;42.548;22.968;2023-04-25T12:41:41;2.30;;;1.40;;
10517;SDS011;5307;42.548;22.968;2023-04-25T12:44:08;1.65;;;1.55;;
10517;SDS011;5307;42.548;22.968;2023-04-25T12:46:36;2.25;;;1.70;;
10517;SDS011;5307;42.548;22.968;2023-04-25T12:49:03;1.48;;;1.23;;
10517;SDS011;5307;42.548;22.968;2023-04-25T12:51:31;1.45;;;1.27;;
10517;SDS011;5307;42.548;22.968;2023-04-25T12:53:58;1.90;;;1.40;;
10517;SDS011;5307;42.548;22.968;2023-04-25T12:56:24;3.15;;;1.70;;
10517;SDS011;5307;42.548;22.968;2023-04-25T12:58:58;3.42;;;1.90;;
10517;SDS011;5307;42.548;22.968;2023-04-25T13:01:25;2.97;;;1.30;;
10517;SDS011;5307;42.548;22.968;2023-04-25T13:03:54;1.90;;;1.48;;
10517;SDS011;5307;42.548;22.968;2023-04-25T13:06:20;3.17;;;1.80;;
10517;SDS011;5307;42.548;22.968;2023-04-25T13:08:48;2.65;;;2.05;;
10517;SDS011;5307;42.548;22.968;2023-04-25T13:11:15;1.60;;;1.42;;
10517;SDS011;5307;42.548;22.968;2023-04-25T13:13:41;9.45;;;2.35;;
10517;SDS011;5307;42.548;22.968;2023-04-25T13:16:09;3.33;;;2.60;;
10517;SDS011;5307;42.548;22.968;2023-04-25T13:18:36;4.88;;;2.95;;
10517;SDS011;5307;42.548;22.968;2023-04-25T13:21:04;7.57;;;2.97;;
10517;SDS011;5307;42.548;22.968;2023-04-25T13:23:31;2.80;;;2.10;;
10517;SDS011;5307;42.548;22.968;2023-04-25T13:25:58;2.00;;;1.60;;
10517;SDS011;5307;42.548;22.968;2023-04-25T13:28:26;2.95;;;1.70;;
10517;SDS011;5307;42.548;22.968;2023-04-25T13:30:53;2.25;;;1.45;;
10517;SDS011;5307;42.548;22.968;2023-04-25T13:33:20;1.40;;;1.30;;
10517;SDS011;5307;42.548;22.968;2023-04-25T13:35:47;1.40;;;1.30;;
10517;SDS011;5307;42.548;22.968;2023-04-25T13:38:20;1.35;;;1.23;;
10517;SDS011;5307;42.548;22.968;2023-04-25T13:40:48;1.10;;;1.10;;
10517;SDS011;5307;42.548;22.968;2023-04-25T13:43:18;3.63;;;3.20;;
10517;SDS011;5307;42.548;22.968;2023-04-25T13:45:45;3.63;;;2.70;;
10517;SDS011;5307;42.548;22.968;2023-04-25T13:48:12;3.15;;;0.80;;
10517;SDS011;5307;42.548;22.968;2023-04-25T13:50:39;3.72;;;2.53;;
10517;SDS011;5307;42.548;22.968;2023-04-25T13:53:05;1.90;;;0.90;;
10517;SDS011;5307;42.548;22.968;2023-04-25T13:55:34;1.10;;;0.95;;
10517;SDS011;5307;42.548;22.968;2023-04-25T13:58:02;1.48;;;1.10;;
10517;SDS011;5307;42.548;22.968;2023-04-25T14:00:32;1.33;;;0.98;;
10517;SDS011;5307;42.548;22.968;2023-04-25T14:03:00;4.90;;;1.17;;
10517;SDS011;5307;42.548;22.968;2023-04-25T14:05:30;1.85;;;0.82;;
10517;SDS011;5307;42.548;22.968;2023-04-25T14:07:57;1.65;;;1.38;;
10517;SDS011;5307;42.548;22.968;2023-04-25T14:10:24;2.50;;;1.20;;
10517;SDS011;5307;42.548;22.968;2023-04-25T14:12:53;1.20;;;1.10;;
10517;SDS011;5307;42.548;22.968;2023-04-25T14:15:22;1.05;;;0.95;;
10517;SDS011;5307;42.548;22.968;2023-04-25T14:17:50;2.05;;;1.27;;
10517;SDS011;5307;42.548;22.968;2023-04-25T14:20:17;2.97;;;1.30;;
10517;SDS011;5307;42.548;22.968;2023-04-25T14:22:45;1.90;;;1.00;;
10517;SDS011;5307;42.548;22.968;2023-04-25T14:25:12;1.60;;;1.33;;
10517;SDS011;5307;42.548;22.968;2023-04-25T14:27:39;2.15;;;1.00;;
10517;SDS011;5307;42.548;22.968;2023-04-25T14:30:08;2.22;;;1.02;;
10517;SDS011;5307;42.548;22.968;2023-04-25T14:32:36;1.38;;;0.90;;
10517;SDS011;5307;42.548;22.968;2023-04-25T14:35:04;4.72;;;2.72;;
10517;SDS011;5307;42.548;22.968;2023-04-25T14:37:32;1.55;;;1.45;;
10517;SDS011;5307;42.548;22.968;2023-04-25T14:39:58;2.17;;;1.38;;
10517;SDS011;5307;42.548;22.968;2023-04-25T14:42:25;3.25;;;1.88;;
10517;SDS011;5307;42.548;22.968;2023-04-25T14:44:52;3.03;;;1.30;;
10517;SDS011;5307;42.548;22.968;2023-04-25T14:47:20;2.95;;;2.17;;
10517;SDS011;5307;42.548;22.968;2023-04-25T14:49:47;1.60;;;1.30;;
10517;SDS011;5307;42.548;22.968;2023-04-25T14:52:19;2.97;;;1.45;;
10517;SDS011;5307;42.548;22.968;2023-04-25T14:54:46;2.30;;;1.35;;
10517;SDS011;5307;42.548;22.968;2023-04-25T14:57:13;1.88;;;1.60;;
10517;SDS011;5307;42.548;22.968;2023-04-25T14:59:39;1.77;;;1.00;;
10517;SDS011;5307;42.548;22.968;2023-04-25T15:02:06;1.25;;;1.15;;
10517;SDS011;5307;42.548;22.968;2023-04-25T15:04:34;2.70;;;1.80;;